Time;durP1;ratioP1;P1;durP2;ratioP2;P2;SDS_P1;SDS_P2;PMS_P1;PMS_P2;Temp;Humidity;BMP_temperature;BMP_pressure;BME280_temperature;BME280_humidity;BME280_pressure;Samples;Min_cycle;Max_cycle;Signal;HPM_P1;HPM_P2
2021/11/02 00:01:26;;;;;;;2.80;1.10;;;;;;;6.87;91.79;99392.73;112647;1195;75486;-79
2021/11/02 00:04:52;;;;;;;1.30;0.60;;;;;;;6.86;91.70;99396.92;112704;1195;69969;-78
2021/11/02 00:08:09;;;;;;;;;;;;;;;;;;;;;
2021/11/02 00:11:38;;;;;;;5.60;1.50;;;;;;;6.85;91.93;99396.48;112605;1195;62035;-78
2021/11/02 00:14:59;;;;;;;;;;;;;;;;;;;;;
2021/11/02 00:18:26;;;;;;;;;;;;;;;;;;;;;
2021/11/02 00:21:29;;;;;;;2.30;1.10;;;;;;;6.88;91.85;99395.38;112833;1187;71288;-80
2021/11/02 00:27:50;;;;;;;4.30;1.10;;;;;;;6.77;91.71;99393.04;112383;1195;61777;-79
2021/11/02 00:31:17;;;;;;;6.50;1.20;;;;;;;6.72;91.66;99387.13;112537;1195;61782;-79
2021/11/02 00:34:44;;;;;;;3.60;1.20;;;;;;;6.69;91.81;99384.96;112584;1195;75530;-80
2021/11/02 00:38:12;;;;;;;6.80;1.90;;;;;;;6.68;91.93;99381.48;112595;1195;72928;-79
2021/11/02 00:41:11;;;;;;;3.50;1.30;;;;;;;6.65;92.02;99378.81;112796;1196;72616;-79
2021/11/02 00:44:44;;;;;;;3.00;1.20;;;;;;;6.64;91.93;99376.80;112743;1195;62892;-78
2021/11/02 00:48:32;;;;;;;4.50;1.50;;;;;;;6.63;91.93;99367.80;112504;1195;61983;-76
2021/11/02 00:51:34;;;;;;;2.80;1.60;;;;;;;6.63;92.41;99369.94;112517;1195;77342;-81
2021/11/02 00:54:44;;;;;;;4.50;1.40;;;;;;;6.63;92.17;99360.41;112486;1194;71448;-78
2021/11/02 00:57:43;;;;;;;2.90;1.20;;;;;;;6.64;92.16;99356.16;112555;1195;71574;-80
2021/11/02 01:03:47;;;;;;;7.50;1.50;;;;;;;6.59;92.66;99352.65;112550;1195;61795;-79
2021/11/02 01:07:11;;;;;;;7.30;1.20;;;;;;;6.58;92.19;99350.09;112769;1195;75587;-79
2021/11/02 01:10:38;;;;;;;5.30;1.10;;;;;;;6.57;92.32;99347.63;112725;1194;72576;-78
2021/11/02 01:13:34;;;;;;;;;;;;;;;;;;;;;
2021/11/02 01:17:03;;;;;;;5.40;1.20;;;;;;;6.53;92.27;99334.23;112678;1194;61756;-77
2021/11/02 01:20:30;;;;;;;3.60;1.50;;;;;;;6.52;92.66;99328.02;112693;1195;61922;-79
2021/11/02 01:23:57;;;;;;;2.70;1.30;;;;;;;6.50;92.54;99329.92;112678;1195;76601;-79
2021/11/02 01:27:07;;;;;;;3.20;1.40;;;;;;;6.48;92.70;99327.21;112645;1195;71176;-77
2021/11/02 01:30:34;;;;;;;3.00;1.20;;;;;;;6.47;92.99;99325.39;112691;1195;74213;-81
2021/11/02 01:34:02;;;;;;;4.30;1.10;;;;;;;6.47;92.66;99325.91;112747;1195;61963;-77
2021/11/02 01:37:54;;;;;;;3.50;1.40;;;;;;;6.46;92.73;99324.67;112627;1195;61820;-79
2021/11/02 01:40:58;;;;;;;3.10;1.20;;;;;;;6.45;92.85;99325.96;112495;1197;75381;-79
2021/11/02 01:47:05;;;;;;;;;;;;;;;;;;;;;
2021/11/02 01:50:43;;;;;;;3.30;1.20;;;;;;;6.37;92.09;99337.61;112692;1194;61757;-77
2021/11/02 01:54:02;;;;;;;3.60;1.40;;;;;;;6.32;92.22;99336.80;112514;1196;61928;-80
2021/11/02 01:57:10;;;;;;;4.20;1.20;;;;;;;6.27;92.65;99340.05;112692;1195;75826;-78
2021/11/02 02:00:27;;;;;;;4.70;1.60;;;;;;;6.19;92.35;99334.31;112735;1195;74034;-78
2021/11/02 02:04:09;;;;;;;;;;;;;;;;;;;;;
2021/11/02 02:07:31;;;;;;;3.10;1.80;;;;;;;6.08;92.70;99337.02;112811;1195;63328;-78
2021/11/02 02:11:13;;;;;;;2.70;1.60;;;;;;;6.05;93.43;99333.13;112660;1196;61866;-78
2021/11/02 02:14:43;;;;;;;7.80;2.10;;;;;;;6.05;94.19;99335.23;112500;1195;76573;-79
2021/11/02 02:18:10;;;;;;;9.50;2.20;;;;;;;6.07;94.46;99336.60;112856;1195;70982;-79
2021/11/02 02:21:50;;;;;;;10.20;1.90;;;;;;;6.08;94.22;99334.88;112721;1196;72327;-79
2021/11/02 02:25:34;;;;;;;3.40;2.00;;;;;;;6.07;93.92;99328.48;112777;1194;61802;-84
2021/11/02 02:29:13;;;;;;;6.50;2.40;;;;;;;6.06;94.17;99330.10;112277;1197;61945;-78
2021/11/02 02:32:40;;;;;;;3.80;2.00;;;;;;;6.04;94.74;99327.11;112361;1196;76629;-82
2021/11/02 02:35:52;;;;;;;5.50;2.00;;;;;;;6.03;95.02;99328.11;112480;1196;71490;-79
2021/11/02 02:39:20;;;;;;;8.10;2.10;;;;;;;6.02;95.15;99328.21;112751;1195;74093;-79
2021/11/02 02:42:47;;;;;;;6.20;2.00;;;;;;;5.99;95.80;99325.91;112600;1196;62880;-79
2021/11/02 02:45:58;;;;;;;3.00;2.00;;;;;;;5.96;95.78;99325.39;112612;1196;61853;-78
2021/11/02 02:49:02;;;;;;;;;;;;;;;;;;;;;
2021/11/02 02:52:30;;;;;;;5.50;2.30;;;;;;;5.96;95.94;99320.31;112632;1196;72373;-82
2021/11/02 02:56:03;;;;;;;5.40;1.90;;;;;;;5.96;96.00;99313.10;112473;1197;74110;-77
2021/11/02 02:59:14;;;;;;;3.80;1.90;;;;;;;5.96;96.09;99315.60;112565;1195;62983;-79
2021/11/02 03:02:14;;;;;;;;;;;;;;;;;;;;;
2021/11/02 03:05:42;;;;;;;3.30;1.90;;;;;;;5.96;95.93;99307.71;112792;1196;75314;-78
2021/11/02 03:09:10;;;;;;;5.70;2.30;;;;;;;5.95;95.92;99304.67;112877;1196;72056;-79
2021/11/02 03:12:23;;;;;;;3.40;1.60;;;;;;;5.92;95.63;99302.45;113333;1195;71331;-79
2021/11/02 03:19:27;;;;;;;4.20;1.50;;;;;;;5.88;95.89;99299.05;112748;1195;61849;-79
2021/11/02 03:56:39;;;;;;;7.80;2.30;;;;;;;5.74;96.61;99304.46;112099;1198;75406;-79
2021/11/02 03:59:38;;;;;;;7.80;2.00;;;;;;;5.80;96.86;99305.37;112213;1198;70955;-79
2021/11/02 04:42:51;;;;;;;4.00;2.30;;;;;;;5.64;97.21;99331.94;112765;1195;59794;-78
2021/11/02 05:07:48;;;;;;;;;;;;;;;;;;;;;
2021/11/02 06:00:36;;;;;;;8.10;4.00;;;;;;;4.95;98.57;99341.50;112671;1196;62000;-81
2021/11/02 06:28:22;;;;;;;5.30;3.00;;;;;;;4.83;96.88;99354.86;112731;1195;72653;-77
2021/11/02 06:31:50;;;;;;;;;;;;;;;;;;;;;
2021/11/02 06:34:36;;;;;;;8.20;3.70;;;;;;;4.78;96.86;99362.80;112719;1195;61856;-78
2021/11/02 06:38:04;;;;;;;10.00;4.10;;;;;;;4.78;96.83;99361.55;112496;1193;75972;-77
2021/11/02 06:51:04;;;;;;;12.70;5.60;;;;;;;5.04;97.54;99366.60;111912;1200;61951;-78
2021/11/02 07:15:23;;;;;;;8.20;3.90;;;;;;;6.09;97.12;99378.64;112493;1194;72725;-78
2021/11/02 07:18:38;;;;;;;7.10;4.00;;;;;;;6.17;96.51;99378.15;112354;1195;62003;-75
2021/11/02 07:24:37;;;;;;;9.90;4.30;;;;;;;6.32;96.05;99381.33;112640;1195;75420;-83
2021/11/02 07:27:26;;;;;;;10.30;5.30;;;;;;;6.41;95.68;99385.88;112582;1195;71375;-77
2021/11/02 08:46:50;;;;;;;10.60;4.60;;;;;;;8.94;87.06;99357.98;112638;1194;73787;-76
2021/11/02 08:49:20;;;;;;;7.00;4.10;;;;;;;9.04;86.36;99356.11;112365;1195;63159;-77
2021/11/02 08:51:58;;;;;;;11.10;3.50;;;;;;;9.14;86.27;99356.56;112446;1194;62589;-76
2021/11/02 08:54:28;;;;;;;8.00;3.70;;;;;;;9.22;86.00;99351.04;112560;1195;76389;-76
2021/11/02 08:56:59;;;;;;;5.50;3.70;;;;;;;9.29;85.64;99348.91;112671;1195;72427;-78
2021/11/02 08:59:33;;;;;;;8.30;4.30;;;;;;;9.35;84.77;99349.38;112592;1195;73576;-77
2021/11/02 09:02:42;;;;;;;;;;;;;;;;;;;;;
2021/11/02 09:05:38;;;;;;;;;;;;;;;;;;;;;
2021/11/02 09:08:57;;;;;;;6.80;3.60;;;;;;;9.69;82.76;99354.27;112422;1186;77012;-76
2021/11/02 09:11:28;;;;;;;5.00;3.70;;;;;;;9.77;83.02;99353.06;112388;1195;71021;-77
2021/11/02 09:14:06;;;;;;;6.60;4.40;;;;;;;9.86;83.08;99351.94;112302;1195;72632;-78
2021/11/02 09:17:01;;;;;;;8.80;4.10;;;;;;;9.92;81.98;99353.19;112614;1195;61852;-78
2021/11/02 09:19:35;;;;;;;8.10;4.20;;;;;;;10.00;81.96;99357.60;112537;1193;61676;-77
2021/11/02 09:22:17;;;;;;;6.30;3.60;;;;;;;10.03;81.28;99358.98;112495;1195;74705;-77
2021/11/02 09:24:58;;;;;;;6.70;3.90;;;;;;;10.04;81.21;99359.64;112962;1196;72080;-79
2021/11/02 09:28:07;;;;;;;9.50;4.30;;;;;;;10.04;80.91;99356.83;112608;1193;72651;-77
2021/11/02 09:30:49;;;;;;;11.00;3.80;;;;;;;10.05;81.36;99354.66;112463;1193;61861;-78
2021/11/02 09:33:27;;;;;;;;;;;;;;;;;;;;;
2021/11/02 09:36:27;;;;;;;9.00;4.20;;;;;;;10.05;81.07;99346.67;112515;1195;76732;-75
2021/11/02 09:39:16;;;;;;;6.40;3.50;;;;;;;10.05;80.31;99349.45;112536;1193;70993;-78
2021/11/02 09:42:15;;;;;;;8.70;3.40;;;;;;;10.04;80.34;99349.81;112422;1195;72330;-77
2021/11/02 09:45:44;;;;;;;8.30;4.50;;;;;;;10.07;80.24;99352.30;112535;1195;61885;-76
2021/11/02 09:48:54;;;;;;;6.60;3.10;;;;;;;10.10;79.59;99352.21;112389;1195;61890;-76
2021/11/02 09:52:04;;;;;;;5.40;3.30;;;;;;;10.13;79.27;99358.36;112529;1195;75453;-77
2021/11/02 09:55:02;;;;;;;;;;;;;;;;;;;;;
2021/11/02 09:58:28;;;;;;;6.30;2.50;;;;;;;10.13;78.16;99357.14;112497;1194;72814;-76
2021/11/02 10:01:04;;;;;;;4.60;2.50;;;;;;;10.16;78.45;99359.95;112510;1195;61763;-82
2021/11/02 10:04:18;;;;;;;;;;;;;;;;;;;;;
2021/11/02 10:07:50;;;;;;;;;;;;;;;;;;;;;
2021/11/02 10:11:24;;;;;;;5.10;2.70;;;;;;;10.28;77.81;99354.65;112594;1194;72488;-79
2021/11/02 10:14:33;;;;;;;6.40;2.50;;;;;;;10.31;78.02;99350.72;112505;1195;72656;-77
2021/11/02 10:17:43;;;;;;;4.00;2.60;;;;;;;10.35;78.24;99349.98;112056;1197;61831;-79
2021/11/02 10:21:14;;;;;;;3.80;2.30;;;;;;;10.36;77.36;99348.02;112193;1197;61902;-78
2021/11/02 10:24:40;;;;;;;3.60;2.20;;;;;;;10.39;76.96;99347.72;112633;1193;75524;-77
2021/11/02 10:27:32;;;;;;;;;;;;;;;;;;;;;
2021/11/02 10:30:46;;;;;;;4.40;2.40;;;;;;;10.47;77.35;99343.27;112675;1194;72707;-77
2021/11/02 10:34:08;;;;;;;6.30;2.10;;;;;;;10.53;76.60;99339.91;112425;1194;61787;-75
2021/11/02 10:37:11;;;;;;;5.10;2.40;;;;;;;10.57;76.17;99342.34;112445;1193;61893;-77
2021/11/02 10:40:26;;;;;;;3.10;1.60;;;;;;;10.68;76.32;99340.06;112580;1196;75598;-77
2021/11/02 10:44:03;;;;;;;4.60;1.90;;;;;;;10.84;75.75;99336.59;112508;1195;71156;-78
2021/11/02 10:47:10;;;;;;;4.20;1.50;;;;;;;10.97;74.44;99330.36;112115;1196;71601;-78
2021/11/02 10:50:05;;;;;;;;;;;;;;;;;;;;;
2021/11/02 10:52:56;;;;;;;5.90;1.70;;;;;;;11.10;73.68;99327.58;112470;1193;61984;-79
2021/11/02 10:55:53;;;;;;;;;;;;;;;;;;;;;
2021/11/02 10:59:01;;;;;;;4.60;1.80;;;;;;;11.23;73.42;99329.51;112690;1195;70899;-80
2021/11/02 11:01:49;;;;;;;4.60;1.70;;;;;;;11.27;74.04;99332.64;112322;1195;72052;-82
2021/11/02 11:04:33;;;;;;;4.00;1.60;;;;;;;11.34;73.81;99336.52;112107;1196;61878;-79
2021/11/02 11:07:21;;;;;;;4.10;1.90;;;;;;;11.38;73.87;99336.41;112732;1193;61794;-75
2021/11/02 11:09:54;;;;;;;2.70;1.40;;;;;;;11.45;73.52;99333.35;112480;1194;76473;-79
2021/11/02 11:12:51;;;;;;;;;;;;;;;;;;;;;
2021/11/02 11:15:18;;;;;;;6.90;2.30;;;;;;;11.49;71.97;99331.86;112685;1194;72859;-78
2021/11/02 11:18:13;;;;;;;3.30;1.60;;;;;;;11.46;71.87;99326.73;112569;1195;61770;-77
2021/11/02 11:20:53;;;;;;;3.40;1.90;;;;;;;11.43;71.96;99330.05;112309;1195;61849;-78
2021/11/02 11:23:47;;;;;;;;;;;;;;;;;;;;;
2021/11/02 11:26:46;;;;;;;5.10;1.80;;;;;;;11.47;71.84;99332.11;112465;1195;72528;-78
2021/11/02 11:29:22;;;;;;;4.30;1.40;;;;;;;11.44;71.55;99328.20;112452;1195;72710;-79
2021/11/02 11:32:12;;;;;;;2.40;1.60;;;;;;;11.38;71.14;99324.77;112349;1195;62194;-77
2021/11/02 11:34:46;;;;;;;4.60;1.80;;;;;;;11.37;71.88;99327.55;112547;1195;61993;-78
2021/11/02 11:37:21;;;;;;;3.60;1.80;;;;;;;11.39;71.54;99325.65;112753;1194;75539;-78
2021/11/02 11:40:05;;;;;;;3.50;2.10;;;;;;;11.46;71.34;99321.20;112335;1195;71242;-77
2021/11/02 11:42:44;;;;;;;2.50;1.20;;;;;;;11.50;70.71;99319.05;112664;1195;72551;-77
2021/11/02 11:45:29;;;;;;;2.90;1.40;;;;;;;11.53;70.14;99323.19;112592;1195;61818;-78
2021/11/02 11:48:51;;;;;;;2.60;1.40;;;;;;;11.55;70.36;99323.67;112439;1195;61714;-77
2021/11/02 11:51:52;;;;;;;2.70;0.80;;;;;;;11.63;70.36;99324.80;112176;1196;75519;-78
2021/11/02 11:54:57;;;;;;;1.90;1.10;;;;;;;11.68;69.66;99326.31;112344;1195;72805;-77
2021/11/02 11:58:31;;;;;;;4.10;1.70;;;;;;;11.66;70.04;99322.86;112279;1196;72641;-79
2021/11/02 12:01:29;;;;;;;6.00;1.70;;;;;;;11.68;69.89;99327.22;112148;1196;61962;-76
2021/11/02 12:04:34;;;;;;;;;;;;;;;;;;;;;
2021/11/02 12:07:51;;;;;;;5.40;1.60;;;;;;;11.65;69.72;99320.76;112029;1196;76588;-77
2021/11/02 12:10:26;;;;;;;3.10;1.50;;;;;;;11.65;69.78;99322.25;112219;1196;71087;-78
2021/11/02 12:13:00;;;;;;;2.20;1.20;;;;;;;11.69;69.91;99316.35;112254;1195;72466;-75
2021/11/02 12:16:10;;;;;;;;;;;;;;;;;;;;;
2021/11/02 12:18:57;;;;;;;3.30;1.30;;;;;;;11.90;68.83;99317.34;112263;1195;61953;-76
2021/11/02 12:21:30;;;;;;;4.40;1.20;;;;;;;12.05;68.92;99311.90;112266;1193;75129;-76
2021/11/02 12:24:04;;;;;;;3.20;1.80;;;;;;;12.20;67.44;99310.27;112848;1195;71049;-78
2021/11/02 12:26:59;;;;;;;3.80;2.00;;;;;;;12.32;66.88;99308.48;112486;1193;73598;-75
2021/11/02 12:29:28;;;;;;;5.00;2.10;;;;;;;12.34;66.60;99308.36;112420;1195;61820;-76
2021/11/02 12:32:07;;;;;;;3.30;2.10;;;;;;;12.30;66.44;99307.83;112388;1195;61823;-77
2021/11/02 12:35:05;;;;;;;;;;;;;;;;;;;;;
2021/11/02 12:37:36;;;;;;;2.10;1.10;;;;;;;12.21;67.20;99307.05;112449;1193;71362;-78
2021/11/02 12:40:54;;;;;;;1.80;1.10;;;;;;;12.18;67.00;99306.23;112569;1195;72628;-76
2021/11/02 12:43:27;;;;;;;4.30;1.40;;;;;;;12.03;66.64;99306.65;112293;1195;61867;-77
2021/11/02 12:45:59;;;;;;;5.60;1.30;;;;;;;11.89;67.10;99307.64;112478;1195;61949;-78
2021/11/02 12:48:29;;;;;;;4.30;1.90;;;;;;;11.79;67.84;99311.23;112407;1194;75022;-77
2021/11/02 12:51:38;;;;;;;3.30;1.30;;;;;;;11.69;68.16;99308.25;112483;1196;71760;-79
2021/11/02 12:54:12;;;;;;;3.80;1.80;;;;;;;11.63;68.12;99307.20;112495;1195;73672;-77
2021/11/02 12:57:01;;;;;;;3.80;1.30;;;;;;;11.57;68.93;99304.21;112749;1193;61884;-76
2021/11/02 12:59:53;;;;;;;2.20;1.00;;;;;;;11.57;69.45;99304.73;112388;1195;61824;-79
2021/11/02 13:02:32;;;;;;;3.30;1.80;;;;;;;11.53;69.28;99307.73;112491;1194;75520;-78
2021/11/02 13:05:16;;;;;;;2.80;1.30;;;;;;;11.54;69.77;99300.80;112628;1194;72310;-78
2021/11/02 13:08:08;;;;;;;4.90;2.20;;;;;;;11.58;69.96;99298.12;113906;1193;73594;-76
2021/11/02 13:10:37;;;;;;;4.00;1.90;;;;;;;11.58;69.65;99297.34;112802;1194;61865;-77
2021/11/02 13:13:56;;;;;;;;;;;;;;;;;;;;;
2021/11/02 13:16:27;;;;;;;2.00;1.20;;;;;;;11.66;69.18;99295.08;112437;1195;74412;-77
2021/11/02 13:18:54;;;;;;;2.60;1.40;;;;;;;11.67;69.13;99295.14;112573;1195;72500;-76
2021/11/02 13:21:52;;;;;;;3.30;1.50;;;;;;;11.66;69.18;99295.77;112570;1193;73798;-77
2021/11/02 13:24:52;;;;;;;;;;;;;;;;;;;;;
2021/11/02 13:27:44;;;;;;;1.70;0.90;;;;;;;11.66;68.84;99296.46;112766;1195;60520;-79
2021/11/02 13:31:11;;;;;;;;;;;;;;;;;;;;;
2021/11/02 13:34:27;;;;;;;2.20;1.30;;;;;;;11.47;68.94;99301.79;112349;1195;72129;-78
2021/11/02 13:37:35;;;;;;;2.10;1.00;;;;;;;11.39;69.37;99299.35;112677;1195;72905;-77
2021/11/02 13:40:40;;;;;;;3.20;1.40;;;;;;;11.34;70.16;99299.42;112607;1193;61835;-76
2021/11/02 13:43:07;;;;;;;1.50;1.00;;;;;;;11.31;69.96;99300.95;112716;1193;61904;-75
2021/11/02 13:45:45;;;;;;;3.00;1.30;;;;;;;11.29;70.06;99301.90;112759;1194;73784;-75
2021/11/02 13:48:57;;;;;;;2.30;1.10;;;;;;;11.30;70.30;99298.75;112666;1195;71011;-77
2021/11/02 13:51:37;;;;;;;2.50;1.30;;;;;;;11.28;70.48;99297.49;112691;1193;71568;-77
2021/11/02 13:54:05;;;;;;;3.30;1.30;;;;;;;11.26;70.53;99297.80;112773;1194;62080;-79
2021/11/02 13:57:13;;;;;;;4.70;1.30;;;;;;;11.22;70.32;99301.14;112604;1195;61874;-80
2021/11/02 14:00:05;;;;;;;3.80;1.30;;;;;;;11.16;70.54;99305.59;112375;1194;76372;-79
2021/11/02 14:02:56;;;;;;;3.90;1.30;;;;;;;11.12;70.64;99304.65;112412;1195;70346;-77
2021/11/02 14:05:29;;;;;;;2.30;1.30;;;;;;;11.13;70.99;99303.88;112493;1194;73615;-76
2021/11/02 14:07:59;;;;;;;3.20;1.30;;;;;;;11.15;71.01;99299.13;112637;1193;61855;-77
2021/11/02 14:10:34;;;;;;;4.30;1.50;;;;;;;11.20;70.97;99301.69;112794;1195;61802;-77
2021/11/02 14:13:03;;;;;;;3.50;1.60;;;;;;;11.22;70.60;99295.46;112395;1195;76398;-78
2021/11/02 14:15:39;;;;;;;2.70;1.20;;;;;;;11.22;70.43;99302.94;112409;1195;72292;-81
2021/11/02 14:18:10;;;;;;;4.40;1.40;;;;;;;11.24;70.81;99302.09;112513;1193;73627;-80
2021/11/02 14:20:48;;;;;;;4.20;2.00;;;;;;;11.23;70.26;99297.29;112659;1195;61780;-76
2021/11/02 14:23:53;;;;;;;;;;;;;;;;;;;;;
2021/11/02 14:26:34;;;;;;;4.00;1.90;;;;;;;11.32;70.33;99298.74;112102;1195;75899;-74
2021/11/02 14:29:43;;;;;;;2.90;1.20;;;;;;;11.37;69.97;99300.79;112331;1195;72097;-78
2021/11/02 14:32:55;;;;;;;2.50;1.20;;;;;;;11.52;70.18;99302.49;111958;1195;73655;-80
2021/11/02 14:35:49;;;;;;;;;;;;;;;;;;;;;
2021/11/02 14:38:47;;;;;;;2.30;1.10;;;;;;;13.27;69.12;99289.98;112169;1195;61868;-79
2021/11/02 14:41:33;;;;;;;2.20;1.30;;;;;;;13.90;66.32;99294.40;112207;1195;74309;-79
2021/11/02 14:44:18;;;;;;;2.20;1.10;;;;;;;14.02;63.65;99299.56;112192;1195;72139;-74
2021/11/02 14:47:38;;;;;;;2.20;1.50;;;;;;;13.93;62.17;99309.28;112166;1195;74782;-75
2021/11/02 14:51:02;;;;;;;2.40;0.80;;;;;;;14.60;61.72;99310.38;112080;1195;62488;-76
2021/11/02 14:54:15;;;;;;;2.80;1.10;;;;;;;15.85;58.64;99310.35;112255;1196;61869;-83
2021/11/02 14:56:58;;;;;;;2.80;1.30;;;;;;;16.79;56.74;99307.96;112220;1195;75574;-82
2021/11/02 14:59:54;;;;;;;2.70;1.30;;;;;;;17.48;53.84;99303.78;112655;1195;71150;-78
2021/11/02 15:03:03;;;;;;;2.30;1.20;;;;;;;17.77;51.97;99299.90;112413;1194;74424;-81
2021/11/02 15:05:33;;;;;;;2.70;0.80;;;;;;;18.19;50.65;99302.14;112563;1193;62255;-78
2021/11/02 15:08:06;;;;;;;2.50;1.10;;;;;;;18.15;50.18;99304.90;112555;1193;61762;-81
2021/11/02 15:10:35;;;;;;;3.60;1.60;;;;;;;17.46;50.48;99303.23;112228;1195;75156;-76
2021/11/02 15:13:19;;;;;;;2.30;1.10;;;;;;;16.81;51.48;99310.02;112798;1193;72187;-80
2021/11/02 15:15:46;;;;;;;2.70;1.20;;;;;;;16.02;52.80;99307.83;112168;1195;72647;-79
2021/11/02 15:18:14;;;;;;;2.00;1.10;;;;;;;15.35;54.17;99308.90;112464;1194;61768;-77
2021/11/02 15:21:02;;;;;;;5.20;1.30;;;;;;;14.79;55.72;99306.77;112841;1194;61988;-83
2021/11/02 15:23:47;;;;;;;3.50;2.10;;;;;;;14.24;57.15;99311.16;112331;1195;76529;-77
2021/11/02 15:27:20;;;;;;;;;;;;;;;;;;;;;
2021/11/02 15:30:13;;;;;;;2.60;1.30;;;;;;;13.12;59.96;99305.27;112283;1194;72702;-78
2021/11/02 15:33:02;;;;;;;4.60;1.40;;;;;;;12.71;61.30;99307.05;112519;1195;61754;-77
2021/11/02 15:35:40;;;;;;;4.00;1.60;;;;;;;12.36;62.32;99311.57;112383;1195;61783;-79
2021/11/02 15:38:45;;;;;;;3.40;1.60;;;;;;;12.05;63.27;99316.27;112415;1195;76495;-79
2021/11/02 15:41:23;;;;;;;5.00;1.40;;;;;;;11.70;64.46;99319.77;112479;1195;71169;-77
2021/11/02 15:44:06;;;;;;;2.70;1.80;;;;;;;11.41;65.31;99313.77;112129;1195;72705;-78
2021/11/02 15:46:54;;;;;;;;;;;;;;;;;;;;;
2021/11/02 15:49:46;;;;;;;13.90;3.80;;;;;;;10.82;67.16;99313.04;112581;1187;60309;-77
2021/11/02 15:55:51;;;;;;;15.50;3.80;;;;;;;10.35;68.89;99313.23;112319;1196;72110;-82
2021/11/02 15:58:58;;;;;;;7.90;1.70;;;;;;;10.15;69.79;99315.76;112212;1195;73614;-81
2021/11/02 16:02:03;;;;;;;;;;;;;;;;;;;;;
2021/11/02 16:04:52;;;;;;;8.20;1.90;;;;;;;9.79;71.31;99319.41;112428;1195;61789;-75
2021/11/02 16:07:28;;;;;;;;;;;;;;;;;;;;;
2021/11/02 16:11:24;;;;;;;10.50;3.80;;;;;;;9.50;72.59;99319.72;112277;1195;69545;-79
2021/11/02 16:14:31;;;;;;;26.70;4.60;;;;;;;9.32;73.17;99322.29;112362;1194;73716;-77
2021/11/02 16:17:29;;;;;;;17.90;3.50;;;;;;;9.15;74.03;99322.82;112163;1195;61796;-76
2021/11/02 16:19:59;;;;;;;8.20;3.50;;;;;;;8.98;74.47;99323.66;112444;1195;61801;-79
2021/11/02 16:22:27;;;;;;;7.80;4.00;;;;;;;8.83;75.13;99321.82;112351;1195;75468;-78
2021/11/02 16:25:37;;;;;;;7.90;3.40;;;;;;;8.71;75.33;99320.66;112480;1194;71101;-77
2021/11/02 16:28:27;;;;;;;6.40;3.60;;;;;;;8.53;75.87;99322.90;112561;1194;73776;-78
2021/11/02 16:31:03;;;;;;;7.40;2.80;;;;;;;8.38;76.36;99326.39;112253;1195;62004;-78
2021/11/02 16:33:50;;;;;;;;;;;;;;;;;;;;;
2021/11/02 16:36:38;;;;;;;6.10;3.30;;;;;;;8.14;77.87;99328.64;112336;1195;75559;-76
2021/11/02 16:39:52;;;;;;;6.40;3.20;;;;;;;8.06;78.47;99327.92;112500;1194;71110;-78
2021/11/02 16:42:28;;;;;;;5.20;2.90;;;;;;;7.94;78.87;99326.90;112218;1195;72725;-77
2021/11/02 16:45:08;;;;;;;4.80;2.90;;;;;;;7.85;79.48;99324.39;112250;1195;61814;-77
2021/11/02 16:47:35;;;;;;;6.00;3.30;;;;;;;7.76;79.88;99326.35;112540;1194;61763;-78
2021/11/02 16:50:33;;;;;;;5.50;2.90;;;;;;;7.67;79.98;99327.22;112442;1195;76376;-77
2021/11/02 16:53:38;;;;;;;5.80;2.70;;;;;;;7.60;80.58;99326.41;112449;1194;72169;-75
2021/11/02 16:56:53;;;;;;;6.40;2.60;;;;;;;7.51;81.01;99327.30;112476;1194;72553;-74
2021/11/02 17:00:05;;;;;;;4.00;2.00;;;;;;;7.39;81.25;99328.21;112456;1196;62038;-78
2021/11/02 17:03:04;;;;;;;3.40;1.90;;;;;;;7.25;81.78;99324.30;112733;1194;61770;-77
2021/11/02 17:09:29;;;;;;;8.70;2.20;;;;;;;7.04;82.75;99328.67;112667;1196;71924;-79
2021/11/02 17:12:33;;;;;;;;;;;;;;;;;;;;;
2021/11/02 17:15:31;;;;;;;4.20;2.30;;;;;;;6.90;83.62;99329.65;112544;1195;62160;-75
2021/11/02 17:18:52;;;;;;;3.50;2.70;;;;;;;6.84;83.70;99331.54;112531;1195;61870;-77
2021/11/02 17:21:48;;;;;;;5.60;2.30;;;;;;;6.82;84.45;99334.59;112573;1195;76109;-76
2021/11/02 17:24:15;;;;;;;10.80;4.00;;;;;;;6.82;84.74;99336.38;112329;1195;71188;-80
2021/11/02 17:27:05;;;;;;;7.60;3.60;;;;;;;6.80;84.77;99336.95;112811;1194;72581;-79
2021/11/02 17:29:35;;;;;;;7.40;4.00;;;;;;;6.79;85.23;99336.33;112393;1195;61929;-76
2021/11/02 17:32:02;;;;;;;9.70;5.40;;;;;;;6.78;84.71;99334.45;112472;1194;61875;-76
2021/11/02 17:34:39;;;;;;;9.00;4.40;;;;;;;6.75;85.47;99335.98;112411;1195;75610;-76
2021/11/02 17:37:30;;;;;;;10.40;5.20;;;;;;;6.73;85.41;99335.90;112369;1195;71245;-79
2021/11/02 17:40:24;;;;;;;14.60;6.40;;;;;;;6.70;84.97;99339.26;112455;1195;73572;-78
2021/11/02 17:43:29;;;;;;;16.60;7.50;;;;;;;6.64;84.94;99342.79;112306;1195;63117;-77
2021/11/02 17:46:33;;;;;;;13.90;6.80;;;;;;;6.56;85.35;99342.98;112498;1193;62305;-77
2021/11/02 17:49:36;;;;;;;8.80;4.80;;;;;;;6.52;85.86;99347.42;112463;1195;75835;-79
2021/11/02 17:52:35;;;;;;;7.60;4.50;;;;;;;6.51;86.46;99343.68;112217;1194;71828;-75
2021/11/02 17:55:15;;;;;;;9.10;4.60;;;;;;;6.50;86.69;99345.08;112432;1195;72571;-77
2021/11/02 17:58:47;;;;;;;7.90;4.30;;;;;;;6.48;86.26;99345.16;112416;1195;61791;-77
2021/11/02 18:01:13;;;;;;;7.40;4.00;;;;;;;6.44;86.67;99348.48;112405;1195;61961;-75
2021/11/02 18:04:03;;;;;;;7.50;3.90;;;;;;;6.40;86.59;99351.95;112674;1195;75449;-76
2021/11/02 18:07:20;;;;;;;17.70;4.80;;;;;;;6.35;86.60;99353.18;112432;1193;69841;-77
2021/11/02 18:10:10;;;;;;;10.40;4.10;;;;;;;6.30;86.96;99354.60;112251;1195;72716;-78
2021/11/02 18:12:50;;;;;;;;;;;;;;;;;;;;;
2021/11/02 18:15:45;;;;;;;8.90;4.30;;;;;;;6.25;87.07;99362.14;112538;1195;61773;-77
2021/11/02 18:18:37;;;;;;;10.40;5.50;;;;;;;6.21;87.40;99364.79;112226;1196;76323;-78
2021/11/02 18:21:22;;;;;;;7.90;4.80;;;;;;;6.22;87.99;99366.02;112524;1195;72222;-75
2021/11/02 18:24:33;;;;;;;8.10;4.20;;;;;;;6.23;88.22;99367.23;112596;1194;72650;-78
2021/11/02 18:27:20;;;;;;;;;;;;;;;;;;;;;
2021/11/02 18:29:56;;;;;;;7.60;4.60;;;;;;;6.20;87.96;99366.23;112323;1195;61882;-76
2021/11/02 18:32:58;;;;;;;8.10;4.50;;;;;;;6.19;88.45;99370.20;112562;1194;75144;-75
2021/11/02 18:35:29;;;;;;;7.90;4.50;;;;;;;6.19;88.39;99368.77;112479;1195;71226;-75
2021/11/02 18:38:28;;;;;;;13.90;4.80;;;;;;;6.19;88.45;99371.91;112439;1195;72252;-78
2021/11/02 18:41:00;;;;;;;8.90;4.90;;;;;;;6.21;88.65;99374.14;112434;1195;61784;-76
2021/11/02 18:43:46;;;;;;;10.90;6.50;;;;;;;6.22;88.81;99373.55;113187;1195;61885;-77
2021/11/02 18:46:12;;;;;;;11.30;6.20;;;;;;;6.19;88.50;99378.18;112572;1195;75364;-77
2021/11/02 18:48:59;;;;;;;10.90;6.10;;;;;;;6.18;88.60;99374.91;112822;1195;70948;-77
2021/11/02 18:51:36;;;;;;;12.20;6.50;;;;;;;6.16;89.07;99374.23;113092;1195;73112;-77
2021/11/02 18:54:27;;;;;;;15.20;7.50;;;;;;;6.16;89.07;99376.06;112755;1194;62663;-77
2021/11/02 18:56:55;;;;;;;23.80;11.50;;;;;;;6.18;89.32;99374.44;112665;1195;62479;-76
2021/11/02 18:59:24;;;;;;;18.80;9.40;;;;;;;6.21;89.26;99379.63;112783;1194;76483;-79
2021/11/02 19:01:51;;;;;;;23.90;10.30;;;;;;;6.23;89.23;99380.96;112539;1196;71059;-78
2021/11/02 19:04:18;;;;;;;32.10;12.90;;;;;;;6.22;89.17;99383.70;112627;1195;72761;-77
2021/11/02 19:06:48;;;;;;;24.00;11.00;;;;;;;6.23;89.35;99380.19;112756;1195;61721;-78
2021/11/02 19:09:20;;;;;;;19.80;9.70;;;;;;;6.23;89.57;99379.41;112713;1196;61753;-77
2021/11/02 19:12:01;;;;;;;11.40;6.40;;;;;;;6.23;89.54;99378.61;112628;1195;75336;-78
2021/11/02 19:14:30;;;;;;;11.00;5.80;;;;;;;6.25;89.81;99382.56;112825;1195;73254;-78
2021/11/02 19:17:02;;;;;;;10.90;5.80;;;;;;;6.26;89.69;99384.24;112921;1195;72647;-78
2021/11/02 19:19:29;;;;;;;9.80;6.00;;;;;;;6.27;89.46;99382.16;112892;1195;61950;-78
2021/11/02 19:21:55;;;;;;;9.90;5.80;;;;;;;6.27;89.61;99383.95;112782;1195;61850;-77
2021/11/02 19:24:24;;;;;;;8.80;5.30;;;;;;;6.28;89.62;99383.66;112796;1195;76459;-81
2021/11/02 19:27:00;;;;;;;13.40;6.00;;;;;;;6.31;89.75;99382.29;112738;1192;72218;-78
2021/11/02 19:29:27;;;;;;;11.10;6.50;;;;;;;6.32;89.76;99384.09;112760;1194;72715;-78
2021/11/02 19:31:59;;;;;;;9.70;5.50;;;;;;;6.36;90.18;99386.79;112380;1196;61759;-76
2021/11/02 19:34:35;;;;;;;8.10;5.30;;;;;;;6.41;90.44;99385.64;112755;1195;61914;-78
2021/11/02 19:37:34;;;;;;;7.90;5.40;;;;;;;6.45;90.28;99388.92;112570;1196;75139;-76
2021/11/02 19:40:04;;;;;;;8.60;5.20;;;;;;;6.48;90.33;99389.52;112352;1196;69800;-76
2021/11/02 19:42:30;;;;;;;9.80;5.00;;;;;;;6.52;90.42;99393.11;112593;1195;73611;-79
2021/11/02 19:45:00;;;;;;;7.50;4.90;;;;;;;6.57;90.43;99392.30;112567;1193;61921;-77